Latest Weather Observations for Giles*

IDD60801

Issued at 9:01 am CST Sunday 14 February 2016 (issued every 30 minutes, with the page automatically refreshed every 10 minutes)

About weather observations | Map of weather stations | Latest weather observations for NT | Other Formats
Station Details ID: 013017 Name: GILES METEOROLOGICAL OFFICE Lat: -25.03 Lon: 128.30 Height: 598.0 m
Data from the previous 72 hours. | See also: Recent months at Giles*

* Giles observations are collected in the South Australia time zone, which includes daylight saving in the summer period. Therefore, Rain since 9am value is with respect to South Australia local time.

Date/Time
CST
Temp
°C
App
Temp
°C
Dew
Point
Rel
Hum
%
Delta-T
°C
Wind Press
QNH
hPa
Press
MSL
hPa
Rain
since 9 am
mm
Dir
 
Spd
km/h
Gust
km/h
Spd
kts
Gust
kts
14/08:30am 27.8 20.9 2.5 19 12.8 ESE 28 41 15 22 1014.3 1009.6 0.0
14/08:00am 26.5 20.1 1.2 19 12.4 ESE 24 32 13 17 1014.3 1009.6 0.0
14/07:30am 25.3 19.0 -0.7 18 12.2 ESE 22 28 12 15 1013.8 1009.0 0.0
14/07:00am 24.4 18.5 -2.3 17 12.1 ESE 19 22 10 12 1013.5 1008.8 0.0
14/06:30am 24.3 18.5 -4.5 14 12.5 E 17 20 9 11 1013.3 1008.6 0.0
14/06:00am 24.8 19.3 -5.1 13 12.9 ESE 15 20 8 11 1013.1 1008.4 0.0
14/05:30am 25.7 19.4 -5.7 12 13.5 ESE 19 22 10 12 1012.8 1008.1 0.0
14/05:00am 26.0 20.1 -5.9 12 13.7 E 17 20 9 11 1012.7 1008.0 0.0
14/04:30am 26.5 20.4 -7.2 10 14.2 ESE 17 20 9 11 1012.3 1007.5 0.0
14/04:00am 27.3 21.2 -8.2 9 14.8 ESE 17 22 9 12 1012.3 1007.5 0.0
14/03:30am 28.9 21.6 -10.4 7 16.0 ESE 22 32 12 17 1012.1 1007.3 0.0
14/03:00am 29.0 22.1 -10.7 7 16.1 SE 20 28 11 15 1012.1 1007.3 0.0
14/02:30am 30.1 23.3 -11.4 6 16.8 SE 19 28 10 15 1012.1 1007.3 0.0
14/02:00am 30.6 23.8 -11.5 6 17.1 ESE 19 24 10 13 1011.7 1007.0 0.0
14/01:30am 30.7 23.8 -10.3 6 17.0 SE 20 26 11 14 1012.1 1007.3 0.0
14/01:00am 31.8 25.0 -11.7 5 17.8 SE 19 24 10 13 1012.3 1007.5 0.0
14/12:30am 32.7 25.7 -12.5 5 18.4 SE 20 28 11 15 1012.5 1007.8 0.0
14/12:00am 32.4 26.2 -8.9 6 17.8 SE 17 22 9 12 1012.5 1007.8 0.0
 
Date/Time
CST
Temp
°C
App
Temp
°C
Dew
Point
Rel
Hum
%
Delta-T
°C
Wind Press
QNH
hPa
Press
MSL
hPa
Rain
since 9 am
mm
Dir
 
Spd
km/h
Gust
km/h
Spd
kts
Gust
kts
13/11:30pm 33.6 26.4 -9.7 6 18.6 SE 22 30 12 16 1012.4 1007.6 0.0
13/11:00pm 33.7 27.1 -7.1 7 18.3 SE 20 26 11 14 1012.4 1007.6 0.0
13/10:30pm 31.9 27.3 -0.9 12 16.1 SE 13 13 7 7 1012.3 1007.5 0.0
13/10:00pm 31.7 27.2 -0.1 13 15.8 SSE 13 15 7 8 1012.3 1007.5 0.0
13/09:30pm 34.6 30.7 -1.2 10 17.8 SSE 9 11 5 6 1012.0 1007.2 0.0
13/09:00pm 35.8 31.9 -1.5 9 18.6 S 9 9 5 5 1011.7 1007.0 0.0
13/08:30pm 35.1 31.5 0.6 11 17.7 SSE 9 11 5 6 1011.5 1006.8 0.0
13/08:00pm 37.9 34.2 -2.5 8 20.1 SSW 7 9 4 5 1011.1 1006.4 0.0
13/07:30pm 38.8 35.4 -1.7 8 20.5 SSE 6 9 3 5 1010.8 1006.0 0.0
13/07:00pm 40.3 37.0 -1.4 7 21.4 E 6 9 3 5 1010.6 1005.8 0.0
13/06:30pm 40.5 35.8 -5.3 5 22.2 SW 11 19 6 10 1010.4 1005.6 0.0
13/06:00pm 41.9 36.7 -6.1 5 23.2 WSW 13 20 7 11 1010.2 1005.4 0.0
13/05:30pm 41.1 36.2 -6.8 5 22.8 S 11 19 6 10 1010.3 1005.5 0.0
13/05:00pm 41.6 36.7 -6.7 4 23.1 E 11 24 6 13 1010.4 1005.6 0.0
13/04:30pm 40.5 36.0 -3.5 6 21.9 NNW 11 20 6 11 1010.6 1005.8 0.0
13/04:00pm 41.6 36.0 -6.8 4 23.1 W 15 24 8 13 1010.9 1006.2 0.0
13/03:30pm 40.7 36.3 -5.8 5 22.4 NNE 9 15 5 8 1011.1 1006.4 0.0
13/03:00pm 40.5 36.7 -0.8 7 21.4 E 9 15 5 8 1011.5 1006.8 0.0
13/02:30pm 39.6 34.6 -4.5 6 21.5 E 13 30 7 16 1011.8 1007.1 0.0
13/02:00pm 40.1 35.4 -1.6 7 21.3 NNE 13 17 7 9 1012.2 1007.4 0.0
13/01:30pm 40.0 34.0 -6.9 5 22.1 WNW 17 30 9 16 1012.7 1008.0 0.0
13/01:00pm 40.0 34.6 -4.9 6 21.8 N 15 26 8 14 1013.0 1008.3 0.0
13/12:30pm 39.2 34.0 -3.1 7 21.0 N 15 24 8 13 1013.4 1008.7 0.0
13/12:00pm 39.2 33.1 -2.6 7 20.9 NNE 20 39 11 21 1013.8 1009.0 0.0
13/11:30am 38.3 31.0 -2.9 7 20.4 NNE 26 35 14 19 1014.1 1009.4 0.0
13/11:00am 37.8 31.2 -3.6 7 20.2 NNE 22 32 12 17 1014.3 1009.6 0.0
13/10:30am 37.1 29.8 -3.2 7 19.7 NNE 26 35 14 19 1014.6 1009.9 0.0
13/10:00am 36.1 30.1 -1.7 9 18.8 NNE 20 28 11 15 1014.7 1010.0 0.0
13/09:30am 35.6 30.2 -1.3 9 18.4 NE 17 24 9 13 1014.9 1010.2 0.0
13/09:00am 34.7 30.2 -0.1 11 17.6 ENE 13 24 7 13 1014.9 1010.2 0.0
13/08:30am 32.7 29.2 1.1 13 16.1 ENE 9 13 5 7 1014.9 1010.2 0.0
13/08:00am 30.6 26.3 -1.3 12 15.4 E 11 15 6 8 1014.7 1010.0 0.0
13/07:30am 26.5 23.4 0.1 18 12.7 ESE 6 9 3 5 1014.4 1009.7 0.0
13/07:00am 25.9 21.5 -2.2 15 12.9 E 11 17 6 9 1014.1 1009.4 0.0
13/06:30am 25.4 19.6 -4.5 13 13.1 ESE 17 19 9 10 1013.6 1008.9 0.0
13/06:00am 26.6 20.3 -5.7 11 14.0 E 19 22 10 12 1013.3 1008.6 0.0
13/05:30am 27.1 20.7 -5.3 11 14.2 E 20 24 11 13 1013.1 1008.4 0.0
13/05:00am 26.9 20.5 -4.8 12 14.0 E 20 24 11 13 1013.0 1008.3 0.0
13/04:30am 27.1 20.9 -4.7 12 14.1 E 19 24 10 13 1013.0 1008.3 0.0
13/04:00am 25.2 19.6 -2.6 16 12.6 ESE 17 19 9 10 1013.1 1008.4 0.0
13/03:30am 26.5 21.6 -3.4 14 13.5 ESE 13 17 7 9 1012.9 1008.2 0.0
13/03:00am 28.4 22.6 -4.6 11 14.8 E 17 22 9 12 1012.9 1008.2 0.0
13/02:30am 28.8 22.6 -5.0 10 15.1 E 19 24 10 13 1012.9 1008.2 0.0
13/02:00am 28.5 23.1 -4.8 11 14.9 E 15 20 8 11 1013.1 1008.4 0.0
13/01:30am 28.8 22.9 -5.5 10 15.2 E 17 20 9 11 1013.3 1008.6 0.0
13/01:00am 29.2 23.6 -6.0 9 15.5 ESE 15 20 8 11 1013.4 1008.7 0.0
13/12:30am 28.7 24.2 -3.2 12 14.7 ESE 11 15 6 8 1013.6 1008.9 0.0
13/12:00am 30.1 24.6 -5.3 9 15.9 SSE 15 19 8 10 1013.6 1008.9 0.0
 
Date/Time
CST
Temp
°C
App
Temp
°C
Dew
Point
Rel
Hum
%
Delta-T
°C
Wind Press
QNH
hPa
Press
MSL
hPa
Rain
since 9 am
mm
Dir
 
Spd
km/h
Gust
km/h
Spd
kts
Gust
kts
12/11:30pm 29.8 24.5 -3.5 11 15.4 SSE 15 19 8 10 1013.6 1008.9 0.0
12/11:00pm 30.6 25.2 -4.2 10 16.0 SSE 15 19 8 10 1013.6 1008.9 0.0
12/10:30pm 31.1 26.3 -2.7 11 16.0 S 13 19 7 10 1013.8 1009.0 0.0
12/10:00pm 29.3 25.4 1.3 16 14.0 SSW 11 20 6 11 1013.4 1008.7 0.0
12/09:30pm 30.2 28.6 4.3 19 13.7 E 2 9 1 5 1012.9 1008.2 0.0
12/09:00pm 35.0 31.2 -0.6 10 17.9 ENE 9 9 5 5 1012.7 1008.0 0.0
12/08:30pm 35.2 31.8 -0.5 10 18.0 ENE 7 9 4 5 1012.5 1007.8 0.0
12/08:00pm 36.3 33.4 2.5 12 18.0 ENE 7 9 4 5 1012.3 1007.5 0.0
12/07:30pm 37.1 33.6 -1.5 8 19.4 E 7 11 4 6 1012.0 1007.2 0.0
12/07:00pm 38.5 35.1 -1.7 8 20.3 NNE 6 11 3 6 1011.8 1007.1 0.0
12/06:30pm 39.5 36.5 0.9 9 20.4 SW 6 9 3 5 1011.6 1006.9 0.0
12/06:00pm 39.3 34.4 -3.8 6 21.2 ENE 13 22 7 12 1011.4 1006.7 0.0
12/05:30pm 39.4 35.1 -4.7 6 21.4 NE 9 15 5 8 1011.4 1006.7 0.0
12/05:00pm 39.7 34.6 -5.4 5 21.7 NNE 13 19 7 10 1011.5 1006.8 0.0
12/04:30pm 39.7 34.8 -6.7 5 21.9 WSW 11 41 6 22 1011.6 1006.9 0.0
12/04:00pm 39.3 33.8 -5.1 6 21.4 SE 15 22 8 12 1011.8 1007.1 0.0
12/03:30pm 38.9 34.0 -3.0 7 20.8 NNE 13 20 7 11 1012.2 1007.4 0.0
12/03:00pm 39.4 35.1 -4.7 6 21.4 ESE 9 13 5 7 1012.6 1007.9 0.0
12/02:30pm 38.9 33.8 -5.4 6 21.2 N 13 24 7 13 1013.0 1008.3 0.0
12/02:00pm 39.3 35.0 -5.2 6 21.4 WSW 9 24 5 13 1013.3 1008.6 0.0
12/01:30pm 38.8 33.0 -4.6 6 21.0 NW 17 28 9 15 1013.8 1009.0 0.0
12/01:00pm 38.4 32.3 -3.7 7 20.6 N 19 28 10 15 1014.1 1009.4 0.0
12/12:30pm 37.7 30.8 -5.8 6 20.5 NNE 22 33 12 18 1014.6 1009.9 0.0
12/12:00pm 37.1 30.2 -2.7 8 19.6 NNE 24 33 13 18 1015.1 1010.4 0.0
12/11:30am 36.8 30.3 -2.6 8 19.4 NE 22 46 12 25 1015.4 1010.7 0.0
12/11:00am 35.8 27.8 -6.2 6 19.4 NE 28 37 15 20 1015.8 1011.1 0.0
12/10:30am 35.7 29.3 -5.4 7 19.2 ENE 20 33 11 18 1016.0 1011.3 0.0
12/10:00am 34.2 26.4 -8.0 6 18.7 ENE 26 39 14 21 1016.0 1011.3 0.0
12/09:30am 33.0 25.0 -9.5 6 18.2 E 26 41 14 22 1016.0 1011.3 0.0
12/09:00am 31.1 23.2 -8.8 7 17.0 E 26 37 14 20 1016.3 1011.6 0.0
12/08:30am 29.1 23.9 -6.4 9 15.5 E 13 20 7 11 1016.4 1011.7 0.0
12/08:00am 25.5 19.0 -6.4 11 13.5 ESE 20 26 11 14 1016.2 1011.5 0.0
12/07:30am 23.7 17.0 -8.0 11 12.8 ESE 20 26 11 14 1016.1 1011.4 0.0
12/07:00am 22.5 15.7 -8.8 11 12.3 ESE 20 24 11 13 1016.0 1011.3 0.0
12/06:30am 21.8 15.3 -7.9 13 11.8 ESE 19 22 10 12 1015.8 1011.1 0.0
12/06:00am 22.8 16.2 -9.1 11 12.5 ESE 19 22 10 12 1015.4 1010.7 0.0
12/05:30am 23.4 16.6 -9.6 10 12.9 ESE 20 24 11 13 1015.1 1010.4 0.0
12/05:00am 20.9 15.4 -5.5 16 10.9 SE 15 17 8 9 1015.2 1010.5 0.0
12/04:30am 21.9 16.3 -6.5 14 11.6 ESE 15 17 8 9 1014.9 1010.2 0.0
12/04:00am 23.1 17.4 -7.5 12 12.4 ESE 15 17 8 9 1014.9 1010.2 0.0
12/03:30am 23.6 17.9 -7.7 12 12.7 ESE 15 17 8 9 1014.7 1010.0 0.0
12/03:00am 25.4 18.7 -9.9 9 14.0 ESE 19 24 10 13 1014.7 1010.0 0.0
12/02:30am 25.1 19.8 -7.6 11 13.5 E 13 17 7 9 1014.8 1010.1 0.0
12/02:00am 26.1 20.7 -8.0 10 14.1 ESE 13 17 7 9 1014.8 1010.1 0.0
12/01:30am 27.4 21.5 -9.3 8 15.0 SE 15 20 8 11 1015.1 1010.4 0.0
12/01:00am 28.0 21.7 -9.8 8 15.4 SE 17 26 9 14 1015.2 1010.5 0.0
12/12:30am 28.3 22.2 -7.9 9 15.3 SSE 17 20 9 11 1015.4 1010.7 0.0
12/12:00am 29.5 22.9 -9.5 7 16.2 SSE 19 24 10 13 1015.6 1010.9 0.0
 
Date/Time
CST
Temp
°C
App
Temp
°C
Dew
Point
Rel
Hum
%
Delta-T
°C
Wind Press
QNH
hPa
Press
MSL
hPa
Rain
since 9 am
mm
Dir
 
Spd
km/h
Gust
km/h
Spd
kts
Gust
kts
11/11:30pm 30.5 23.5 -11.4 6 17.0 SSE 20 32 11 17 1015.4 1010.7 0.0
11/11:00pm 31.0 23.7 -10.7 6 17.2 SSE 22 30 12 16 1015.2 1010.5 0.0
11/10:30pm 31.3 24.5 -9.3 6 17.2 SSE 20 28 11 15 1015.0 1010.3 0.0
11/10:00pm 32.2 25.0 -10.0 6 17.8 SSE 22 32 12 17 1014.8 1010.1 0.0
11/09:30pm 32.3 25.9 -6.7 7 17.4 S 19 22 10 12 1014.5 1009.8 0.0
11/09:00pm 33.4 27.0 -5.1 8 17.8 S 20 28 11 15 1014.1 1009.4 0.0
11/08:30pm 34.0 27.8 -4.8 8 18.1 S 19 28 10 15 1013.9 1009.1 0.0
11/08:00pm 34.6 29.1 -5.0 7 18.5 S 15 20 8 11 1013.5 1008.8 0.0
11/07:30pm 36.2 29.2 -7.2 6 19.8 S 22 35 12 19 1013.0 1008.3 0.0
11/07:00pm 37.5 31.1 -7.2 5 20.6 SSE 19 26 10 14 1012.7 1008.0 0.0
11/06:30pm 38.1 31.6 -8.2 5 21.1 S 19 28 10 15 1012.4 1007.6 0.0
11/06:00pm 39.0 33.8 -6.3 5 21.4 SSE 13 24 7 13 1012.2 1007.4 0.0
11/05:30pm 39.2 33.6 -6.8 5 21.6 SE 15 28 8 15 1012.1 1007.3 0.0
11/05:00pm 39.2 32.6 -9.1 4 21.9 SE 19 28 10 15 1012.2 1007.4 0.0
11/04:30pm 39.2 32.2 -11.9 3 22.2 SE 20 32 11 17 1012.2 1007.4 0.0
11/04:00pm 39.3 34.6 -9.5 4 22.0 SSW 9 22 5 12 1012.3 1007.5 0.0
11/03:30pm 39.4 32.1 -10.7 4 22.2 SSE 22 37 12 20 1012.5 1007.8 0.0
11/03:00pm 39.2 32.3 -10.1 4 22.0 S 20 30 11 16 1012.9 1008.2 0.0
11/02:30pm 39.0 34.5 -7.1 5 21.5 ESE 9 19 5 10 1013.2 1008.5 0.0
11/02:00pm 39.2 33.9 -7.7 5 21.7 S 13 28 7 15 1013.6 1008.9 0.0
11/01:30pm 37.9 33.5 -6.3 6 20.7 SW 9 24 5 13 1014.2 1009.5 0.0
11/01:00pm 38.1 33.4 -5.5 6 20.7 SSE 11 28 6 15 1014.7 1010.0 0.0
11/12:30pm 36.6 31.5 -5.0 7 19.7 SSE 13 20 7 11 1015.0 1010.3 0.0
11/12:00pm 37.0 31.5 -5.4 6 20.0 E 15 26 8 14 1015.2 1010.5 0.0
11/11:30am 36.3 29.8 -6.2 6 19.7 ENE 20 30 11 16 1015.6 1010.9 0.0
11/11:00am 35.7 27.4 -8.8 5 19.7 E 28 35 15 19 1015.8 1011.1 0.0
11/10:30am 34.7 26.9 -8.0 6 19.0 E 26 37 14 20 1015.9 1011.2 0.0
11/10:00am 34.1 26.4 -7.0 7 18.5 E 26 37 14 20 1016.1 1011.4 0.0
11/09:30am 32.8 24.9 -4.4 9 17.3 E 28 37 15 20 1016.3 1011.6 0.0
11/09:00am 30.7 23.4 -2.5 11 15.7 E 26 35 14 19 1016.4 1011.7 0.0
11/08:30am 29.4 22.6 -1.8 13 14.8 E 24 33 13 18 1016.4 1011.7 0.0

Other Formats:

Comma delimited format used in spreadsheet applications
http://www.bom.gov.au/fwo/IDD60801/IDD60801.94461.axf

JavaScript Object Notation format (JSON) in row-major order
http://www.bom.gov.au/fwo/IDD60801/IDD60801.94461.json